Time;durP1;ratioP1;P1;durP2;ratioP2;P2;SDS_P1;SDS_P2;PMS_P1;PMS_P2;Temp;Humidity;BMP_temperature;BMP_pressure;BME280_temperature;BME280_humidity;BME280_pressure;Samples;Min_cycle;Max_cycle;Signal;HPM_P1;HPM_P2
2022/12/08 00:02:32;;;;;;;184.15;98.60;;;;;;;16.17;73.57;99007.09;4926961;29;20051;-69
2022/12/08 00:11:23;;;;;;;190.27;97.55;;;;;;;16.08;74.00;99039.13;4946203;29;20158;-68
2022/12/08 00:14:12;;;;;;;176.68;95.55;;;;;;;16.05;74.13;99036.94;4948982;28;20158;-69
2022/12/08 00:17:02;;;;;;;188.35;99.90;;;;;;;16.00;74.49;99031.41;4957017;28;20074;-69
2022/12/08 00:19:45;;;;;;;196.68;101.75;;;;;;;15.97;74.25;99034.56;4969049;28;20043;-70
2022/12/08 00:22:40;;;;;;;195.35;100.43;;;;;;;15.98;73.52;99039.75;4969499;28;20109;-69
2022/12/08 00:25:15;;;;;;;182.63;96.68;;;;;;;16.02;73.54;99040.91;4966945;28;20179;-69
2022/12/08 00:28:05;;;;;;;186.05;101.50;;;;;;;16.10;73.36;99045.13;4959222;28;20887;-69
2022/12/08 00:30:48;;;;;;;198.35;99.65;;;;;;;15.97;73.74;99045.41;4971574;28;20554;-69
2022/12/08 00:33:44;;;;;;;178.60;95.70;;;;;;;16.05;73.68;99050.47;4984092;28;20046;-68
2022/12/08 00:36:19;;;;;;;176.38;94.65;;;;;;;16.01;73.24;99051.97;4986959;28;20057;-68
2022/12/08 00:39:20;;;;;;;;;;;;;;;16.03;73.15;99052.56;4972841;28;20051;-70
2022/12/08 00:42:14;;;;;;;184.68;96.63;;;;;;;15.83;73.76;99058.41;4940991;28;19930;-69
2022/12/08 00:45:10;;;;;;;180.48;97.50;;;;;;;15.87;73.45;99067.69;4970982;28;20847;-69
2022/12/08 00:47:45;;;;;;;189.50;96.53;;;;;;;15.70;74.10;99072.97;4968227;28;20062;-68
2022/12/08 00:50:34;;;;;;;187.60;98.35;;;;;;;15.73;74.25;99069.84;4968376;28;20053;-68
2022/12/08 00:53:16;;;;;;;184.63;97.28;;;;;;;15.65;74.57;99073.72;4974773;28;20114;-67
2022/12/08 00:56:12;;;;;;;185.20;96.05;;;;;;;15.69;74.26;99065.94;4968570;28;20878;-68
2022/12/08 00:58:47;;;;;;;186.90;95.43;;;;;;;15.60;74.48;99062.78;4986392;28;20092;-70
2022/12/08 01:01:37;;;;;;;194.02;99.55;;;;;;;15.56;74.80;99063.50;4984264;28;20445;-71
2022/12/08 01:04:22;;;;;;;193.77;97.60;;;;;;;15.54;74.59;99071.03;4968062;28;20053;-69
2022/12/08 01:07:11;;;;;;;195.82;99.53;;;;;;;15.50;75.30;99069.88;4967647;28;20081;-69
2022/12/08 01:10:00;;;;;;;196.13;101.57;;;;;;;15.43;75.37;99070.78;4968306;28;20142;-70
2022/12/08 01:12:49;;;;;;;194.30;101.85;;;;;;;15.37;75.10;99085.25;4952382;28;20074;-70
2022/12/08 01:15:38;;;;;;;200.93;101.40;;;;;;;15.25;75.62;99095.28;4967456;28;20621;-70
2022/12/08 01:18:34;;;;;;;207.30;100.28;;;;;;;15.16;76.07;99097.50;4952583;28;20051;-69
2022/12/08 01:21:09;;;;;;;194.70;102.38;;;;;;;15.16;76.68;99099.38;4982700;28;20046;-68
2022/12/08 01:24:07;;;;;;;190.77;100.05;;;;;;;15.15;76.91;99105.84;4967928;28;20074;-74
2022/12/08 01:26:42;;;;;;;190.15;99.88;;;;;;;15.25;76.80;99100.69;4967519;28;20054;-69
2022/12/08 01:29:38;;;;;;;202.40;103.65;;;;;;;15.30;75.93;99108.91;4968452;28;20074;-68
2022/12/08 01:32:27;;;;;;;202.02;102.53;;;;;;;15.20;76.83;99116.78;4972215;28;20062;-67
2022/12/08 01:35:16;;;;;;;201.93;101.30;;;;;;;15.15;76.83;99127.47;4972694;28;20150;-69
2022/12/08 01:37:58;;;;;;;206.82;104.22;;;;;;;15.03;76.81;99130.97;4979291;28;20047;-69
2022/12/08 01:40:47;;;;;;;199.05;102.05;;;;;;;15.01;76.78;99132.28;4967832;28;20081;-68
2022/12/08 01:43:57;;;;;;;197.00;103.45;;;;;;;15.10;76.26;99135.47;4975478;28;20046;-69
2022/12/08 01:46:48;;;;;;;200.57;100.50;;;;;;;15.10;76.43;99135.47;4978489;28;20545;-69
2022/12/08 01:49:33;;;;;;;194.45;102.18;;;;;;;15.10;76.82;99140.88;4971607;28;20464;-69
2022/12/08 01:52:44;;;;;;;195.75;99.47;;;;;;;15.08;76.25;99139.22;4966484;28;20660;-69
2022/12/08 01:55:32;;;;;;;203.40;103.65;;;;;;;15.05;77.15;99133.44;4966723;28;20051;-70
2022/12/08 01:58:34;;;;;;;206.32;102.55;;;;;;;15.12;76.49;99133.34;4951644;28;20071;-69
2022/12/08 02:01:16;;;;;;;199.73;103.13;;;;;;;15.18;76.32;99138.63;4946965;29;20051;-69
2022/12/08 02:04:08;;;;;;;198.63;101.88;;;;;;;15.11;76.10;99143.31;4956693;28;20149;-70
2022/12/08 02:06:50;;;;;;;200.88;103.22;;;;;;;15.14;76.01;99144.75;4982437;28;20104;-69
2022/12/08 02:09:48;;;;;;;202.05;105.30;;;;;;;15.13;78.60;99148.50;4972873;28;20062;-70
2022/12/08 02:12:30;;;;;;;209.70;104.20;;;;;;;15.30;76.67;99152.16;4983985;28;20046;-70
2022/12/08 02:15:21;;;;;;;206.05;103.57;;;;;;;15.19;76.69;99159.22;4972131;28;20039;-71
2022/12/08 02:18:23;;;;;;;200.85;103.63;;;;;;;15.18;77.87;99162.16;4961921;28;20134;-70
2022/12/08 02:21:58;;;;;;;190.63;103.05;;;;;;;15.42;76.87;99161.13;4958543;28;20051;-70
2022/12/08 02:25:04;;;;;;;209.93;103.60;;;;;;;15.62;77.01;99166.16;4961234;28;20425;-70
2022/12/08 02:28:02;;;;;;;194.40;101.97;;;;;;;15.73;75.51;99167.25;4956897;28;20296;-71
2022/12/08 02:31:06;;;;;;;199.35;100.55;;;;;;;15.74;75.40;99176.19;4961925;28;20050;-71
2022/12/08 02:34:12;;;;;;;192.90;105.75;;;;;;;15.78;75.79;99190.88;4965603;28;20050;-73
2022/12/08 02:37:05;;;;;;;203.80;104.70;;;;;;;15.72;76.02;99199.94;4960822;28;20222;-71
2022/12/08 02:40:12;;;;;;;192.32;103.68;;;;;;;15.78;76.29;99207.13;4955973;28;20054;-72
2022/12/08 02:43:04;;;;;;;198.35;102.25;;;;;;;15.76;75.53;99201.97;4950639;28;20058;-72
2022/12/08 02:45:58;;;;;;;196.32;105.05;;;;;;;15.93;75.62;99212.88;4957046;28;20058;-71
2022/12/08 02:48:49;;;;;;;192.70;103.60;;;;;;;15.99;74.83;99221.94;4943743;28;20074;-72
2022/12/08 02:51:30;;;;;;;220.70;110.75;;;;;;;16.15;74.82;99210.41;4958595;28;20470;-71
2022/12/08 02:54:21;;;;;;;216.65;109.57;;;;;;;16.31;74.42;99211.53;4955719;28;20043;-71
2022/12/08 02:57:49;;;;;;;202.27;108.65;;;;;;;16.42;74.42;99223.41;4956377;28;20083;-72
2022/12/08 03:00:54;;;;;;;204.65;107.43;;;;;;;16.42;74.93;99216.09;4958492;28;20054;-71
2022/12/08 03:07:40;;;;;;;220.55;113.88;;;;;;;16.58;74.71;99241.59;4958133;28;20046;-71
2022/12/08 03:10:46;;;;;;;249.40;124.97;;;;;;;16.55;74.13;99247.53;4959343;28;20066;-71
2022/12/08 03:13:44;;;;;;;224.55;116.47;;;;;;;16.68;75.45;99251.00;4943297;28;20046;-71
2022/12/08 03:16:36;;;;;;;232.32;119.60;;;;;;;16.69;73.81;99252.66;4955740;28;20079;-71
2022/12/08 03:19:40;;;;;;;238.00;121.55;;;;;;;16.72;73.84;99257.59;4956759;28;20122;-72
2022/12/08 03:22:21;;;;;;;240.02;123.07;;;;;;;16.95;75.27;99262.16;4962789;28;20043;-71
2022/12/08 03:25:20;;;;;;;239.25;126.65;;;;;;;17.09;73.98;99255.38;4954209;28;20083;-72
2022/12/08 03:27:56;;;;;;;234.38;121.68;;;;;;;17.11;74.88;99264.06;4962178;28;20035;-71
2022/12/08 03:30:57;;;;;;;230.32;125.75;;;;;;;17.21;74.64;99274.28;4948101;28;20043;-72
2022/12/08 03:33:51;;;;;;;240.98;123.10;;;;;;;17.45;74.73;99277.69;4965681;28;20050;-71
2022/12/08 03:36:40;;;;;;;240.23;126.10;;;;;;;17.51;72.82;99287.56;4967239;28;20055;-72
2022/12/08 03:39:22;;;;;;;230.52;125.07;;;;;;;17.71;73.10;99292.53;4980839;28;20050;-71
2022/12/08 03:42:11;;;;;;;239.98;124.93;;;;;;;17.91;72.13;99291.22;4975020;28;20070;-71
2022/12/08 03:44:53;;;;;;;246.10;126.63;;;;;;;18.13;73.19;99302.16;4973124;28;20138;-70
2022/12/08 03:47:42;;;;;;;227.80;124.13;;;;;;;18.24;72.89;99297.69;4976251;28;20039;-71
2022/12/08 03:50:25;;;;;;;234.70;126.13;;;;;;;18.59;66.27;99300.91;4976401;28;20059;-72
2022/12/08 03:53:14;;;;;;;231.20;122.80;;;;;;;18.95;66.80;99304.09;4974082;28;20053;-70
2022/12/08 03:55:56;;;;;;;223.30;121.28;;;;;;;19.17;68.40;99311.41;4978414;28;20065;-70
2022/12/08 03:58:45;;;;;;;222.32;116.60;;;;;;;19.20;69.83;99318.22;4977633;28;20051;-70
2022/12/08 04:01:27;;;;;;;229.70;118.15;;;;;;;19.43;66.18;99312.47;4976987;28;20130;-72
2022/12/08 04:04:16;;;;;;;210.52;113.97;;;;;;;19.73;65.24;99313.84;4976213;28;20146;-71
2022/12/08 04:06:58;;;;;;;211.60;112.95;;;;;;;20.13;62.95;99318.78;4976556;28;20050;-72
2022/12/08 04:09:47;;;;;;;206.93;111.47;;;;;;;20.30;60.26;99312.38;4978541;28;20580;-71
2022/12/08 04:12:29;;;;;;;200.18;109.53;;;;;;;20.06;62.65;99318.22;4957818;28;20438;-71
2022/12/08 04:15:18;;;;;;;192.48;105.53;;;;;;;20.18;61.89;99322.63;4970965;28;20098;-71
2022/12/08 04:17:59;;;;;;;195.27;110.80;;;;;;;20.29;59.73;99318.88;4972540;28;20653;-71
2022/12/08 04:20:51;;;;;;;203.30;109.38;;;;;;;20.18;58.14;99322.63;4962237;28;20155;-71
2022/12/08 04:23:34;;;;;;;198.45;106.28;;;;;;;20.14;60.85;99320.44;4961300;28;20050;-71
2022/12/08 04:26:23;;;;;;;196.80;110.40;;;;;;;20.37;57.98;99321.13;4956905;28;20046;-71
2022/12/08 04:29:05;;;;;;;206.93;113.05;;;;;;;20.46;58.77;99316.00;4957017;28;20074;-70
2022/12/08 04:32:00;;;;;;;201.40;114.95;;;;;;;20.75;57.22;99315.63;4964195;28;20058;-72
2022/12/08 04:34:35;;;;;;;215.98;117.50;;;;;;;20.79;56.32;99309.38;4968496;28;20059;-70
2022/12/08 04:37:23;;;;;;;200.35;114.55;;;;;;;21.16;56.96;99308.41;4964947;28;20146;-73
2022/12/08 04:40:06;;;;;;;210.88;116.40;;;;;;;21.19;56.42;99318.78;4961002;28;20047;-72
2022/12/08 04:42:55;;;;;;;183.90;109.18;;;;;;;19.81;59.10;99327.00;4967198;28;20138;-72
2022/12/08 04:45:37;;;;;;;208.80;111.72;;;;;;;20.34;58.10;99332.56;4969017;28;20047;-70
2022/12/08 04:48:26;;;;;;;201.48;109.65;;;;;;;20.72;55.82;99330.63;4966909;28;20133;-69
2022/12/08 04:51:08;;;;;;;201.25;109.32;;;;;;;20.99;56.81;99325.00;4957594;28;20058;-70
2022/12/08 04:53:56;;;;;;;200.40;111.35;;;;;;;20.98;55.01;99327.97;4960781;28;20057;-71
2022/12/08 04:56:46;;;;;;;195.20;107.03;;;;;;;21.01;54.56;99333.72;4968210;28;20702;-71
2022/12/08 04:59:28;;;;;;;194.38;110.65;;;;;;;21.18;55.77;99332.72;4955832;28;20077;-68
2022/12/08 05:02:17;;;;;;;197.23;110.85;;;;;;;21.31;55.21;99341.19;4964487;28;20162;-70
2022/12/08 05:05:07;;;;;;;190.07;104.05;;;;;;;21.34;55.32;99333.56;4952159;28;20047;-67
2022/12/08 05:07:56;;;;;;;177.55;97.95;;;;;;;21.40;54.79;99341.50;4955831;28;20051;-64
2022/12/08 05:10:39;;;;;;;192.82;101.00;;;;;;;21.65;54.51;99334.47;4963915;28;20143;-67
2022/12/08 05:13:28;;;;;;;188.48;104.65;;;;;;;21.41;54.66;99336.84;4958610;28;20475;-66
2022/12/08 05:16:17;;;;;;;184.98;104.40;;;;;;;21.48;56.57;99342.91;4958673;28;20051;-64
2022/12/08 05:18:59;;;;;;;193.02;105.00;;;;;;;21.62;56.77;99348.66;4955341;28;20065;-66
2022/12/08 05:21:54;;;;;;;189.10;103.20;;;;;;;21.27;53.13;99350.22;4950089;28;21425;-69
2022/12/08 05:24:29;;;;;;;175.02;97.28;;;;;;;21.33;53.18;99353.78;4957495;28;20054;-66
2022/12/08 05:27:24;;;;;;;194.60;99.63;;;;;;;21.79;51.23;99348.41;4984816;28;20074;-68
2022/12/08 05:30:06;;;;;;;178.05;99.07;;;;;;;22.10;51.32;99347.28;4963055;28;20043;-65
2022/12/08 05:33:01;;;;;;;181.38;100.07;;;;;;;22.15;50.91;99334.75;4955409;28;20619;-66
2022/12/08 05:35:36;;;;;;;182.05;102.30;;;;;;;22.33;53.11;99342.38;4977154;28;20734;-63
2022/12/08 05:38:25;;;;;;;166.10;96.65;;;;;;;22.46;47.34;99341.00;4965083;28;20138;-69
2022/12/08 05:41:07;;;;;;;176.73;93.38;;;;;;;22.80;45.77;99348.56;4943789;28;20773;-66
2022/12/08 05:43:56;;;;;;;139.13;79.63;;;;;;;22.98;43.19;99347.13;4956626;28;20061;-67
2022/12/08 05:46:45;;;;;;;139.38;74.28;;;;;;;22.82;42.61;99344.44;4946066;28;20761;-69
2022/12/08 05:49:26;;;;;;;143.60;78.50;;;;;;;23.05;43.46;99353.16;4965052;28;20062;-67
2022/12/08 05:52:16;;;;;;;124.38;66.45;;;;;;;23.33;41.12;99350.81;4966044;28;20065;-68
2022/12/08 05:54:59;;;;;;;123.90;65.47;;;;;;;23.61;43.59;99344.59;4974462;28;20410;-67
2022/12/08 05:57:48;;;;;;;125.47;65.95;;;;;;;23.61;41.58;99339.13;4986499;28;20116;-67
2022/12/08 06:00:33;;;;;;;120.45;71.07;;;;;;;23.59;42.50;99341.31;4986233;28;20050;-65
2022/12/08 06:03:23;;;;;;;127.07;73.03;;;;;;;24.28;41.68;99346.81;4962658;28;20434;-67
2022/12/08 06:06:05;;;;;;;117.80;69.22;;;;;;;23.97;40.31;99347.09;4966777;28;20509;-65
2022/12/08 06:08:54;;;;;;;118.85;63.10;;;;;;;24.27;43.31;99341.63;4967036;28;20134;-67
2022/12/08 06:11:45;;;;;;;96.60;52.90;;;;;;;24.16;40.95;99338.97;4973555;28;20058;-66
2022/12/08 06:14:27;;;;;;;86.82;50.17;;;;;;;24.58;42.06;99339.41;4975064;28;20085;-66
2022/12/08 06:17:15;;;;;;;83.13;49.92;;;;;;;24.66;38.94;99330.53;4966468;28;20061;-66
2022/12/08 06:20:05;;;;;;;85.03;48.55;;;;;;;24.85;42.73;99327.03;4985749;28;20137;-66
2022/12/08 06:22:48;;;;;;;76.53;45.03;;;;;;;24.95;39.54;99324.16;4957033;28;20058;-65
2022/12/08 06:25:37;;;;;;;77.57;45.15;;;;;;;24.62;39.32;99324.81;4985896;28;20054;-66
2022/12/08 06:28:18;;;;;;;72.97;41.40;;;;;;;24.63;37.71;99328.41;4985702;28;20062;-64
2022/12/08 06:31:17;;;;;;;70.93;42.38;;;;;;;24.67;43.78;99336.84;4983442;28;20054;-64
2022/12/08 06:33:53;;;;;;;80.45;44.70;;;;;;;24.52;40.87;99333.16;4975865;28;20113;-65
2022/12/08 06:36:43;;;;;;;89.90;49.80;;;;;;;24.44;42.14;99331.03;4948374;28;20057;-65
2022/12/08 06:39:25;;;;;;;84.05;48.28;;;;;;;24.28;40.87;99324.88;4954498;28;20043;-66
2022/12/08 06:45:15;;;;;;;80.35;46.55;;;;;;;24.26;40.56;99316.13;4938983;28;20054;-66
2022/12/08 06:48:04;;;;;;;81.75;49.60;;;;;;;24.34;41.25;99320.16;4955545;28;20114;-66
2022/12/08 06:50:46;;;;;;;97.22;51.38;;;;;;;24.02;40.79;99314.16;4957937;28;20050;-64
2022/12/08 06:53:42;;;;;;;89.50;49.90;;;;;;;24.41;41.59;99302.25;4959694;28;20803;-65
2022/12/08 06:56:18;;;;;;;87.25;49.50;;;;;;;24.76;39.12;99302.97;4957187;28;20039;-67
2022/12/08 06:59:14;;;;;;;87.53;48.65;;;;;;;24.62;38.88;99302.03;4957003;28;20055;-68
2022/12/08 07:01:49;;;;;;;86.45;49.00;;;;;;;24.57;38.10;99293.88;4965925;28;20138;-67
2022/12/08 07:04:37;;;;;;;89.90;50.70;;;;;;;24.84;41.16;99295.19;4967474;28;20050;-67
2022/12/08 07:07:20;;;;;;;100.30;51.88;;;;;;;24.74;40.65;99294.19;4972658;28;20105;-67
2022/12/08 07:10:09;;;;;;;93.78;51.42;;;;;;;24.54;41.89;99276.06;4970306;28;20051;-65
2022/12/08 07:12:52;;;;;;;97.82;52.10;;;;;;;24.71;39.04;99277.53;4972564;28;20046;-65
2022/12/08 07:15:41;;;;;;;105.10;54.42;;;;;;;24.73;39.60;99270.63;4966066;28;20129;-67
2022/12/08 07:18:30;;;;;;;92.43;53.17;;;;;;;24.69;41.23;99274.25;4961404;28;20051;-67
2022/12/08 07:21:19;;;;;;;94.85;55.17;;;;;;;24.77;40.13;99263.44;4956675;28;20106;-67
2022/12/08 07:24:01;;;;;;;103.50;58.10;;;;;;;24.78;40.01;99245.84;4980127;28;20066;-67
2022/12/08 07:26:49;;;;;;;107.00;58.90;;;;;;;24.69;42.56;99252.31;4963465;28;20450;-67
2022/12/08 07:29:32;;;;;;;105.30;55.10;;;;;;;24.13;39.82;99245.50;4963507;28;20047;-66
2022/12/08 07:32:27;;;;;;;107.05;54.83;;;;;;;24.61;42.49;99240.84;4980265;28;20055;-67
2022/12/08 07:35:22;;;;;;;100.90;52.28;;;;;;;24.15;40.33;99226.81;4975606;28;20109;-67
2022/12/08 07:37:57;;;;;;;104.75;54.53;;;;;;;24.40;40.22;99217.47;4972792;28;20039;-68
2022/12/08 07:40:53;;;;;;;108.50;53.57;;;;;;;24.60;43.16;99213.72;4971420;28;20489;-66
2022/12/08 07:43:28;;;;;;;98.18;55.40;;;;;;;24.59;42.34;99214.81;4978092;28;20280;-67
2022/12/08 07:46:20;;;;;;;112.93;55.83;;;;;;;24.92;40.33;99206.69;4971228;28;20054;-67
2022/12/08 07:49:03;;;;;;;110.68;61.63;;;;;;;24.84;40.31;99199.09;4968318;28;20063;-67
2022/12/08 07:51:52;;;;;;;113.93;59.45;;;;;;;24.93;42.74;99202.81;4932190;28;20061;-67
2022/12/08 07:54:34;;;;;;;106.57;61.72;;;;;;;24.69;41.10;99202.91;4942583;28;20058;-66
2022/12/08 07:57:22;;;;;;;117.63;63.75;;;;;;;24.59;41.34;99192.84;4968771;28;20050;-67
2022/12/08 08:00:05;;;;;;;125.25;65.93;;;;;;;24.76;42.70;99190.44;4969661;28;20050;-67
2022/12/08 08:03:01;;;;;;;124.97;65.45;;;;;;;24.98;41.84;99189.03;4969378;28;20054;-68
2022/12/08 08:05:38;;;;;;;130.82;70.07;;;;;;;25.09;41.62;99185.00;4968919;28;20058;-66
2022/12/08 08:08:26;;;;;;;126.03;70.55;;;;;;;25.19;40.97;99173.84;4966303;28;20066;-66
2022/12/08 08:11:13;;;;;;;125.72;71.45;;;;;;;25.07;40.93;99178.16;4967070;28;20050;-69
2022/12/08 08:14:02;;;;;;;134.73;70.60;;;;;;;25.34;41.78;99163.78;4956422;28;20491;-67
2022/12/08 08:16:45;;;;;;;132.07;74.57;;;;;;;25.36;41.11;99167.03;4967491;28;20437;-66
2022/12/08 08:19:33;;;;;;;145.95;76.65;;;;;;;25.34;40.81;99158.28;4969886;28;20789;-66
2022/12/08 08:22:16;;;;;;;118.07;69.60;;;;;;;25.24;39.98;99159.25;4970380;28;20034;-67
2022/12/08 08:25:05;;;;;;;113.15;64.75;;;;;;;25.33;40.12;99157.44;4968118;28;20142;-66
2022/12/08 08:27:47;;;;;;;117.13;68.35;;;;;;;25.35;40.70;99155.19;4965320;28;20137;-69
2022/12/08 08:30:42;;;;;;;110.65;65.05;;;;;;;25.28;40.21;99143.81;4968182;28;20092;-71
2022/12/08 08:33:31;;;;;;;112.50;65.57;;;;;;;25.21;40.41;99152.38;4969833;28;20046;-68
2022/12/08 08:36:20;;;;;;;100.78;57.45;;;;;;;25.21;40.76;99149.63;4975320;28;20902;-68
2022/12/08 08:39:03;;;;;;;98.07;50.40;;;;;;;25.25;39.55;99147.13;4974299;28;20061;-68
2022/12/08 08:41:52;;;;;;;69.70;42.47;;;;;;;25.19;39.34;99135.41;4961416;28;20339;-68
2022/12/08 08:44:41;;;;;;;66.22;37.78;;;;;;;25.21;38.86;99138.66;4948967;29;20061;-67
2022/12/08 08:47:23;;;;;;;69.78;37.50;;;;;;;25.13;39.73;99133.03;4959346;28;20039;-68
2022/12/08 08:50:06;;;;;;;66.97;36.35;;;;;;;24.93;40.52;99143.22;4976525;28;20050;-69
2022/12/08 08:53:01;;;;;;;64.82;35.00;;;;;;;25.05;40.27;99140.03;4949508;29;20102;-69
2022/12/08 08:55:39;;;;;;;60.10;32.67;;;;;;;25.05;39.42;99137.28;4953699;28;20051;-68
2022/12/08 08:58:34;;;;;;;59.40;32.65;;;;;;;25.15;39.53;99145.34;4957359;28;20055;-68
2022/12/08 09:01:15;;;;;;;59.80;30.77;;;;;;;25.07;39.94;99136.97;4963914;28;20106;-68
2022/12/08 09:04:04;;;;;;;60.53;32.47;;;;;;;25.11;39.96;99133.34;4957518;28;20043;-68
2022/12/08 09:06:53;;;;;;;51.20;26.75;;;;;;;25.21;39.03;99124.91;4961798;28;20101;-67
2022/12/08 09:09:49;;;;;;;47.25;26.33;;;;;;;25.25;39.80;99116.94;4954122;28;20051;-68
2022/12/08 09:12:24;;;;;;;53.92;29.70;;;;;;;25.19;39.67;99107.94;4949255;28;20055;-67
2022/12/08 09:15:13;;;;;;;52.55;27.38;;;;;;;25.28;39.79;99104.50;4953772;28;20054;-67
2022/12/08 09:17:55;;;;;;;48.80;28.65;;;;;;;25.04;41.10;99097.19;4962154;28;20097;-69
2022/12/08 09:20:50;;;;;;;50.92;30.08;;;;;;;24.72;40.50;99087.00;4954914;28;20047;-68
2022/12/08 09:23:25;;;;;;;48.45;31.30;;;;;;;24.90;41.27;99091.69;4957764;28;20061;-67
2022/12/08 09:26:16;;;;;;;56.08;33.70;;;;;;;25.05;41.32;99087.03;4956568;28;20534;-68
2022/12/08 09:29:00;;;;;;;58.92;32.78;;;;;;;24.85;40.64;99086.25;4965739;28;20054;-67
2022/12/08 09:31:55;;;;;;;54.47;31.55;;;;;;;24.86;40.37;99082.41;4965388;28;20057;-68
2022/12/08 09:34:44;;;;;;;52.50;29.67;;;;;;;24.80;40.95;99076.19;4968241;28;20050;-68
2022/12/08 09:37:33;;;;;;;48.75;29.23;;;;;;;24.85;40.92;99074.47;4971536;28;20054;-67
2022/12/08 09:40:23;;;;;;;53.10;30.13;;;;;;;24.95;40.56;99068.78;4955522;28;20051;-69
2022/12/08 09:43:39;;;;;;;52.53;29.40;;;;;;;24.93;40.42;99082.00;4959644;28;20054;-65
2022/12/08 09:46:21;;;;;;;38.45;25.30;;;;;;;24.80;40.25;99073.44;4947014;28;20043;-66
2022/12/08 09:49:14;;;;;;;46.60;25.55;;;;;;;24.74;41.12;99071.06;4963031;28;20054;-65
2022/12/08 09:51:56;;;;;;;46.53;26.80;;;;;;;24.68;41.00;99070.31;4964767;28;20157;-62
2022/12/08 09:54:45;;;;;;;53.63;26.58;;;;;;;24.57;41.06;99074.34;4965826;28;20053;-64
2022/12/08 09:57:41;;;;;;;43.53;25.88;;;;;;;24.72;39.72;99070.56;4973476;28;20130;-64
2022/12/08 10:00:17;;;;;;;41.70;24.08;;;;;;;24.68;39.71;99067.59;4969244;28;20068;-62
2022/12/08 10:03:18;;;;;;;46.70;24.80;;;;;;;24.54;40.44;99067.53;4980090;28;20121;-65
2022/12/08 10:06:02;;;;;;;;;;;;;;;24.56;41.25;99072.72;4981699;28;20277;-66
2022/12/08 10:09:09;;;;;;;48.95;25.88;;;;;;;24.45;40.93;99066.53;4975468;28;20599;-66
2022/12/08 10:12:10;;;;;;;49.33;25.15;;;;;;;24.40;41.85;99074.81;4964234;28;20046;-63
2022/12/08 10:15:10;;;;;;;43.63;25.77;;;;;;;24.38;41.52;99066.91;4964907;28;20494;-67
2022/12/08 10:17:55;;;;;;;94.13;27.27;;;;;;;24.24;41.82;99066.00;4957759;28;20061;-65
2022/12/08 10:20:53;;;;;;;41.10;24.30;;;;;;;24.20;42.34;99054.00;4956079;28;20047;-65
2022/12/08 10:23:36;;;;;;;62.90;26.42;;;;;;;24.16;42.67;99047.47;4957296;28;20051;-64
2022/12/08 10:26:25;;;;;;;55.50;27.75;;;;;;;24.13;42.17;99048.91;4957180;28;20051;-66
2022/12/08 10:29:10;;;;;;;51.85;27.75;;;;;;;24.04;43.46;99051.47;4963658;28;20094;-63
2022/12/08 10:32:06;;;;;;;52.25;27.13;;;;;;;23.98;43.93;99052.66;4956959;28;20146;-66
2022/12/08 10:35:16;;;;;;;48.13;27.77;;;;;;;23.94;43.31;99034.34;4959684;28;20061;-66
2022/12/08 10:37:57;;;;;;;45.45;27.45;;;;;;;23.92;43.47;99042.03;4936932;28;20054;-63
2022/12/08 10:40:47;;;;;;;47.85;27.23;;;;;;;23.94;42.80;99046.13;4945328;28;20102;-65
2022/12/08 10:43:33;;;;;;;59.83;27.73;;;;;;;23.86;43.65;99037.75;4934553;28;20054;-62
2022/12/08 10:46:31;;;;;;;48.20;26.80;;;;;;;23.94;43.03;99043.41;4964833;28;20038;-66
2022/12/08 10:49:06;;;;;;;53.47;27.45;;;;;;;23.77;43.31;99034.78;4963493;28;20082;-65
2022/12/08 10:51:55;;;;;;;52.35;28.40;;;;;;;23.70;44.32;99039.84;4964637;28;20778;-62
2022/12/08 10:54:41;;;;;;;51.90;27.48;;;;;;;23.70;44.82;99034.34;4955035;28;20276;-65
2022/12/08 10:57:29;;;;;;;53.63;29.07;;;;;;;23.65;44.77;99029.72;4979528;28;20050;-63
2022/12/08 11:00:24;;;;;;;49.63;27.23;;;;;;;23.60;44.70;99029.81;4974379;28;20557;-68
2022/12/08 11:03:27;;;;;;;49.17;29.40;;;;;;;23.44;46.43;99037.38;4973006;28;20146;-64
2022/12/08 11:06:21;;;;;;;50.60;29.15;;;;;;;23.43;46.29;99031.09;4958152;28;20312;-64
2022/12/08 11:09:16;;;;;;;56.90;30.77;;;;;;;23.38;45.90;99038.53;4955157;28;20086;-68
2022/12/08 11:12:29;;;;;;;56.40;29.33;;;;;;;23.29;45.43;99034.81;4939623;28;20427;-61
2022/12/08 11:15:25;;;;;;;58.45;29.40;;;;;;;23.11;46.29;99034.44;4955300;28;20059;-65
2022/12/08 11:18:02;;;;;;;54.03;28.48;;;;;;;;;;4959295;28;20110;-64
2022/12/08 11:21:12;;;;;;;53.30;28.95;;;;;;;22.77;49.52;99035.25;4954724;28;20069;-64
2022/12/08 11:23:49;;;;;;;54.05;29.15;;;;;;;22.54;51.05;99027.78;4943489;28;20066;-66
2022/12/08 11:26:53;;;;;;;58.80;30.80;;;;;;;22.44;52.72;99029.50;4942295;28;20073;-65
2022/12/08 11:29:31;;;;;;;59.55;32.08;;;;;;;22.33;52.10;99032.59;4955261;28;20047;-66
2022/12/08 11:32:21;;;;;;;63.90;29.95;;;;;;;22.22;54.25;99026.31;4958709;28;20479;-65
2022/12/08 11:35:13;;;;;;;61.03;32.55;;;;;;;22.08;55.32;99028.88;4954166;28;20054;-69
2022/12/08 11:38:01;;;;;;;57.15;32.10;;;;;;;21.98;55.77;99023.47;4954504;28;20074;-64
2022/12/08 11:41:10;;;;;;;72.07;32.53;;;;;;;21.79;56.13;99015.09;4956329;28;20534;-63
2022/12/08 11:44:05;;;;;;;61.20;32.15;;;;;;;21.69;54.67;99011.31;4959165;28;20051;-67
2022/12/08 11:46:55;;;;;;;66.43;31.63;;;;;;;21.65;56.12;99018.44;4946354;29;20118;-67
2022/12/08 11:49:49;;;;;;;59.05;30.85;;;;;;;21.57;57.10;99010.81;4965427;28;20074;-65
2022/12/08 11:52:41;;;;;;;53.28;32.20;;;;;;;21.49;56.70;99016.84;4979529;28;20414;-64
2022/12/08 11:56:04;;;;;;;57.97;30.75;;;;;;;21.36;56.33;99007.28;4964075;28;20105;-66
2022/12/08 11:58:55;;;;;;;72.43;32.80;;;;;;;21.25;57.24;99005.72;4959794;28;20514;-64
2022/12/08 12:01:51;;;;;;;82.03;34.58;;;;;;;21.16;58.10;99004.63;4601961;29;10001403;-70
2022/12/08 12:05:20;;;;;;;62.78;33.40;;;;;;;21.05;57.80;98992.91;4953803;28;20039;-66
2022/12/08 12:08:31;;;;;;;61.95;34.72;;;;;;;20.97;58.68;98998.94;4945142;28;20043;-70
2022/12/08 12:14:59;;;;;;;72.38;33.90;;;;;;;20.80;58.79;99000.03;4960826;28;20055;-70
2022/12/08 12:18:15;;;;;;;63.20;33.58;;;;;;;20.69;59.41;99006.59;4948024;29;20118;-70
2022/12/08 12:21:00;;;;;;;64.65;33.63;;;;;;;20.66;59.19;99013.41;4958232;28;20054;-70
2022/12/08 12:24:00;;;;;;;68.47;35.38;;;;;;;20.58;59.24;98996.75;4951306;28;20137;-69
2022/12/08 12:26:56;;;;;;;68.05;33.13;;;;;;;20.51;59.61;98997.03;4964449;28;20038;-70
2022/12/08 12:29:54;;;;;;;76.85;35.53;;;;;;;20.46;60.35;99006.00;4956251;28;20051;-70
2022/12/08 12:32:51;;;;;;;87.65;35.75;;;;;;;20.47;60.23;99015.84;4958450;28;20125;-70
2022/12/08 12:35:47;;;;;;;83.10;35.30;;;;;;;20.42;60.61;99009.56;4960846;28;20051;-70
2022/12/08 12:42:10;;;;;;;79.80;34.45;;;;;;;20.29;61.87;99016.34;4948625;28;20043;-69
2022/12/08 12:45:21;;;;;;;76.47;37.45;;;;;;;20.23;61.87;99020.16;4961061;28;20125;-70
2022/12/08 12:47:56;;;;;;;;;;;;;;;20.23;61.99;99018.25;4955293;28;20051;-71
2022/12/08 12:50:50;;;;;;;97.00;36.50;;;;;;;20.12;62.85;99017.44;4957297;28;19923;-65
2022/12/08 12:53:52;;;;;;;99.10;36.83;;;;;;;20.01;62.53;99018.50;4953149;28;20055;-68
2022/12/08 12:56:53;;;;;;;99.05;39.55;;;;;;;20.06;62.84;99013.06;4956111;28;20130;-68
2022/12/08 13:00:01;;;;;;;101.75;39.97;;;;;;;20.05;62.34;99016.84;4961788;28;20376;-65
2022/12/08 13:02:52;;;;;;;109.32;39.60;;;;;;;20.09;62.30;99017.16;4962440;28;20130;-69
2022/12/08 13:05:39;;;;;;;99.55;40.13;;;;;;;20.04;62.79;99009.75;4975799;28;20055;-67
2022/12/08 13:08:28;;;;;;;106.17;41.73;;;;;;;19.82;63.34;99014.63;4975516;28;20144;-63
2022/12/08 13:11:16;;;;;;;95.35;40.92;;;;;;;19.75;63.50;99010.22;4958043;28;20296;-66
2022/12/08 13:14:05;;;;;;;93.53;41.72;;;;;;;19.78;63.49;99018.97;4976391;28;20391;-65
2022/12/08 13:16:47;;;;;;;95.90;39.83;;;;;;;19.68;64.25;99023.25;4974203;28;20073;-65